Time;durP1;ratioP1;P1;durP2;ratioP2;P2;SDS_P1;SDS_P2;PMS_P1;PMS_P2;Temp;Humidity;BMP_temperature;BMP_pressure;BME280_temperature;BME280_humidity;BME280_pressure;Samples;Min_cycle;Max_cycle;Signal;HPM_P1;HPM_P2
2022/08/23 00:01:57;;;;;;;7.28;2.88;;;;;;;;;;5075312;28;20044;-77
2022/08/23 00:04:25;;;;;;;7.25;3.58;;;;;;;;;;5092952;28;20067;-77
2022/08/23 00:07:00;;;;;;;7.90;3.22;;;;;;;;;;5098991;28;20146;-77
2022/08/23 00:09:28;;;;;;;8.00;3.65;;;;;;;;;;5086942;28;20463;-76
2022/08/23 00:11:54;;;;;;;9.98;3.80;;;;;;;;;;5054720;28;20052;-76
2022/08/23 00:14:23;;;;;;;8.77;4.30;;;;;;;;;;5073125;28;20666;-77
2022/08/23 00:16:50;;;;;;;7.97;4.20;;;;;;;;;;5072815;28;20061;-77
2022/08/23 00:19:17;;;;;;;8.23;4.00;;;;;;;;;;5073395;28;20076;-78
2022/08/23 00:21:44;;;;;;;10.75;4.78;;;;;;;;;;5074120;28;20094;-78
2022/08/23 00:24:16;;;;;;;7.28;4.22;;;;;;;;;;5072945;28;20114;-78
2022/08/23 00:26:51;;;;;;;9.23;4.95;;;;;;;;;;5074768;28;20087;-77
2022/08/23 00:29:18;;;;;;;8.43;4.43;;;;;;;;;;5073872;28;20150;-77
2022/08/23 00:31:45;;;;;;;7.70;3.92;;;;;;;;;;5072381;28;20049;-78
2022/08/23 00:34:11;;;;;;;7.82;4.43;;;;;;;;;;5072021;28;20092;-78
2022/08/23 00:36:38;;;;;;;9.30;4.32;;;;;;;;;;5073896;28;20500;-78
2022/08/23 00:39:05;;;;;;;8.73;4.05;;;;;;;;;;5074376;28;20064;-78
2022/08/23 00:41:33;;;;;;;12.23;4.63;;;;;;;;;;5073773;28;20143;-78
2022/08/23 00:49:30;;;;;;;9.77;4.45;;;;;;;;;;5072014;28;20052;-77
2022/08/23 00:52:16;;;;;;;8.50;4.72;;;;;;;;;;5071004;28;20076;-78
2022/08/23 00:54:43;;;;;;;8.77;4.75;;;;;;;;;;5064899;28;20099;-77
2022/08/23 00:57:12;;;;;;;8.80;5.20;;;;;;;;;;5083985;28;20127;-78
2022/08/23 00:59:38;;;;;;;8.00;5.00;;;;;;;;;;5093633;28;20113;-78
2022/08/23 01:02:05;;;;;;;10.57;5.50;;;;;;;;;;5091129;28;20040;-77
2022/08/23 01:04:36;;;;;;;7.45;5.47;;;;;;;;;;5088421;28;20048;-77
2022/08/23 01:07:05;;;;;;;12.27;4.88;;;;;;;;;;5091239;28;20105;-77
2022/08/23 01:09:31;;;;;;;8.65;5.20;;;;;;;;;;5089238;28;20075;-76
2022/08/23 01:12:06;;;;;;;12.07;5.55;;;;;;;;;;5056644;28;20079;-76
2022/08/23 01:14:37;;;;;;;10.20;6.05;;;;;;;;;;5069202;28;20151;-77
2022/08/23 01:17:09;;;;;;;10.70;6.03;;;;;;;;;;5068793;28;20151;-78
2022/08/23 01:19:37;;;;;;;10.32;5.70;;;;;;;;;;5068399;28;20048;-77
2022/08/23 01:22:14;;;;;;;11.80;5.68;;;;;;;;;;5068455;28;20060;-77
2022/08/23 01:24:42;;;;;;;11.10;6.22;;;;;;;;;;5068675;28;20049;-76
2022/08/23 01:27:28;;;;;;;11.45;6.05;;;;;;;;;;5068667;28;20044;-77
2022/08/23 01:29:57;;;;;;;11.95;5.97;;;;;;;;;;5069150;28;20086;-76
2022/08/23 01:32:24;;;;;;;11.73;6.80;;;;;;;;;;5050269;28;20139;-77
2022/08/23 01:34:50;;;;;;;12.90;6.47;;;;;;;;;;5071139;28;20044;-78
2022/08/23 01:37:18;;;;;;;11.65;6.43;;;;;;;;;;5070788;28;20104;-77
2022/08/23 01:39:44;;;;;;;15.02;7.00;;;;;;;;;;5053063;28;20068;-77
2022/08/23 01:42:11;;;;;;;10.77;6.45;;;;;;;;;;5070072;28;20064;-78
2022/08/23 01:44:37;;;;;;;11.45;6.15;;;;;;;;;;5071570;28;20535;-78
2022/08/23 01:47:05;;;;;;;11.43;6.18;;;;;;;;;;5071678;28;20140;-78
2022/08/23 01:49:32;;;;;;;11.80;6.65;;;;;;;;;;5070003;28;20048;-77
2022/08/23 01:51:59;;;;;;;13.27;6.65;;;;;;;;;;5069628;28;20072;-77
2022/08/23 01:54:25;;;;;;;11.90;6.60;;;;;;;;;;5079297;28;20040;-77
2022/08/23 01:56:51;;;;;;;13.50;6.97;;;;;;;;;;5086165;28;20143;-78
2022/08/23 01:59:18;;;;;;;10.18;6.60;;;;;;;;;;5075310;28;20053;-78
2022/08/23 02:01:46;;;;;;;11.77;6.65;;;;;;;;;;5072600;28;20083;-77
2022/08/23 02:04:12;;;;;;;11.55;6.57;;;;;;;;;;5070929;28;20064;-77
2022/08/23 02:06:39;;;;;;;12.32;6.57;;;;;;;;;;5070912;28;20140;-77
2022/08/23 02:09:05;;;;;;;11.93;6.93;;;;;;;;;;5073290;28;20469;-77
2022/08/23 02:11:43;;;;;;;10.00;6.45;;;;;;;;;;5081682;28;20043;-79
2022/08/23 02:14:15;;;;;;;12.13;6.47;;;;;;;;;;5092217;28;20120;-77
2022/08/23 02:16:47;;;;;;;13.32;6.72;;;;;;;;;;5074629;28;20070;-77
2022/08/23 02:19:30;;;;;;;14.43;6.93;;;;;;;;;;5096328;28;20130;-77
2022/08/23 02:21:57;;;;;;;13.90;6.95;;;;;;;;;;5096880;28;20052;-78
2022/08/23 02:24:24;;;;;;;12.18;6.82;;;;;;;;;;5098735;28;20076;-77
2022/08/23 02:26:53;;;;;;;9.27;6.57;;;;;;;;;;5099485;28;20101;-77
2022/08/23 02:29:23;;;;;;;12.48;6.95;;;;;;;;;;5098509;28;20048;-78
2022/08/23 02:31:49;;;;;;;12.38;7.07;;;;;;;;;;5088592;28;20052;-76
2022/08/23 02:34:17;;;;;;;13.73;7.63;;;;;;;;;;5087596;28;20118;-76
2022/08/23 02:36:43;;;;;;;13.75;7.75;;;;;;;;;;5088330;28;20143;-77
2022/08/23 02:39:10;;;;;;;11.27;7.25;;;;;;;;;;5070179;28;20083;-77
2022/08/23 02:41:37;;;;;;;12.23;6.75;;;;;;;;;;5087850;28;20143;-78
2022/08/23 02:44:09;;;;;;;16.83;7.53;;;;;;;;;;5089368;28;20061;-77
2022/08/23 02:46:37;;;;;;;13.68;7.50;;;;;;;;;;5087999;28;20083;-77
2022/08/23 02:49:03;;;;;;;11.85;6.45;;;;;;;;;;5094840;28;20134;-78
2022/08/23 02:51:32;;;;;;;14.02;7.00;;;;;;;;;;5095751;28;20044;-78
2022/08/23 02:54:00;;;;;;;13.70;6.53;;;;;;;;;;5095430;28;20047;-77
2022/08/23 02:56:26;;;;;;;14.05;6.43;;;;;;;;;;5084738;28;20139;-77
2022/08/23 02:58:52;;;;;;;11.65;6.50;;;;;;;;;;5092869;28;20052;-77
2022/08/23 03:01:30;;;;;;;14.73;6.50;;;;;;;;;;5092380;28;20056;-77
2022/08/23 03:03:57;;;;;;;15.50;6.68;;;;;;;;;;5090903;28;20127;-77
2022/08/23 03:06:23;;;;;;;15.07;6.50;;;;;;;;;;5092463;28;20459;-77
2022/08/23 03:08:53;;;;;;;12.10;6.22;;;;;;;;;;5092409;28;20040;-76
2022/08/23 03:11:20;;;;;;;9.68;6.00;;;;;;;;;;5092151;28;20134;-76
2022/08/23 03:13:47;;;;;;;11.93;6.18;;;;;;;;;;5093277;28;20246;-76
2022/08/23 03:16:14;;;;;;;11.15;5.85;;;;;;;;;;5093120;28;20485;-76
2022/08/23 03:18:41;;;;;;;11.48;5.85;;;;;;;;;;5091498;28;20090;-77
2022/08/23 03:21:08;;;;;;;12.70;6.18;;;;;;;;;;5092762;28;20139;-77
2022/08/23 03:23:35;;;;;;;11.18;5.90;;;;;;;;;;5093066;28;20481;-77
2022/08/23 03:26:03;;;;;;;10.40;5.80;;;;;;;;;;5095656;28;20107;-78
2022/08/23 03:28:30;;;;;;;12.95;5.80;;;;;;;;;;5118697;28;20040;-78
2022/08/23 03:30:58;;;;;;;12.02;5.75;;;;;;;;;;5118341;28;20050;-75
2022/08/23 03:33:25;;;;;;;11.02;5.50;;;;;;;;;;5095535;28;20076;-77
2022/08/23 03:35:51;;;;;;;9.75;5.60;;;;;;;;;;5073453;28;20052;-78
2022/08/23 03:38:18;;;;;;;13.38;5.82;;;;;;;;;;5074456;28;20474;-77
2022/08/23 03:40:45;;;;;;;11.48;5.90;;;;;;;;;;5073817;28;20104;-77
2022/08/23 03:43:13;;;;;;;12.32;6.60;;;;;;;;;;5073948;28;20136;-77
2022/08/23 03:45:40;;;;;;;11.60;5.90;;;;;;;;;;5075191;28;20092;-76
2022/08/23 03:48:06;;;;;;;13.68;6.32;;;;;;;;;;5064864;28;20052;-77
2022/08/23 03:50:32;;;;;;;11.68;6.72;;;;;;;;;;5075878;28;20048;-77
2022/08/23 03:52:59;;;;;;;12.25;6.68;;;;;;;;;;5107113;28;20155;-78
2022/08/23 03:55:25;;;;;;;14.13;5.88;;;;;;;;;;5098227;28;20076;-79
2022/08/23 03:57:52;;;;;;;14.95;6.40;;;;;;;;;;5095945;28;20132;-78
2022/08/23 04:00:18;;;;;;;11.82;5.95;;;;;;;;;;5095426;28;20098;-79
2022/08/23 04:02:45;;;;;;;14.50;6.63;;;;;;;;;;5092838;28;20079;-78
2022/08/23 04:05:12;;;;;;;15.75;6.13;;;;;;;;;;5092993;28;20044;-79
2022/08/23 04:07:39;;;;;;;10.48;6.22;;;;;;;;;;5093965;28;20783;-78
2022/08/23 04:10:06;;;;;;;12.25;6.72;;;;;;;;;;5101384;28;20523;-78
2022/08/23 04:12:33;;;;;;;13.73;6.80;;;;;;;;;;5093225;28;20044;-78
2022/08/23 04:14:59;;;;;;;13.32;6.38;;;;;;;;;;5097015;28;20164;-79
2022/08/23 04:17:28;;;;;;;13.80;6.85;;;;;;;;;;5094927;28;20052;-78
2022/08/23 04:19:58;;;;;;;11.00;6.65;;;;;;;;;;5095191;28;20067;-78
2022/08/23 04:22:24;;;;;;;18.35;7.38;;;;;;;;;;5093575;28;20094;-78
2022/08/23 04:24:50;;;;;;;15.13;6.72;;;;;;;;;;5094021;28;20086;-78
2022/08/23 04:27:17;;;;;;;15.50;6.32;;;;;;;;;;5092809;28;20074;-78
2022/08/23 04:29:44;;;;;;;16.10;7.05;;;;;;;;;;5094575;28;20040;-78
2022/08/23 04:32:10;;;;;;;14.65;6.72;;;;;;;;;;5094150;28;20477;-78
2022/08/23 04:34:41;;;;;;;16.40;7.43;;;;;;;;;;5092509;28;20298;-77
2022/08/23 04:37:11;;;;;;;16.88;6.57;;;;;;;;;;5090863;28;20074;-77
2022/08/23 04:42:23;;;;;;;12.07;6.70;;;;;;;;;;5073920;28;20049;-78
2022/08/23 04:44:50;;;;;;;14.07;6.88;;;;;;;;;;5068692;28;20181;-77
2022/08/23 04:47:16;;;;;;;13.32;6.68;;;;;;;;;;5068991;28;20139;-76
2022/08/23 04:49:43;;;;;;;11.50;6.18;;;;;;;;;;5070043;28;20497;-78
2022/08/23 04:52:10;;;;;;;11.38;6.32;;;;;;;;;;5068583;28;20132;-77
2022/08/23 04:54:36;;;;;;;14.55;6.80;;;;;;;;;;5056877;28;20493;-77
2022/08/23 04:57:03;;;;;;;10.68;6.70;;;;;;;;;;5077974;28;20147;-77
2022/08/23 04:59:29;;;;;;;16.95;7.05;;;;;;;;;;5072119;28;20067;-77
2022/08/23 05:01:56;;;;;;;13.20;7.05;;;;;;;;;;5091895;28;20197;-79
2022/08/23 05:04:23;;;;;;;11.63;7.82;;;;;;;;;;5107606;28;20044;-78
2022/08/23 05:06:50;;;;;;;16.60;7.93;;;;;;;;;;5109452;28;20068;-79
2022/08/23 05:09:18;;;;;;;14.98;8.07;;;;;;;;;;5111826;28;20112;-78
2022/08/23 05:11:46;;;;;;;21.20;8.60;;;;;;;;;;5098413;28;20054;-79
2022/08/23 05:14:12;;;;;;;14.23;9.18;;;;;;;;;;5076970;28;20076;-76
2022/08/23 05:16:39;;;;;;;16.73;8.27;;;;;;;;;;5057495;28;20095;-79
2022/08/23 05:19:05;;;;;;;15.80;8.55;;;;;;;;;;5076222;28;20069;-78
2022/08/23 05:21:31;;;;;;;17.90;9.57;;;;;;;;;;5075172;28;20080;-77
2022/08/23 05:23:59;;;;;;;16.02;9.68;;;;;;;;;;5058878;28;20505;-79
2022/08/23 05:26:28;;;;;;;17.10;9.70;;;;;;;;;;5076328;28;20550;-78
2022/08/23 05:28:55;;;;;;;15.82;9.20;;;;;;;;;;5076303;28;20048;-78
2022/08/23 05:31:22;;;;;;;13.50;8.75;;;;;;;;;;5076220;28;20068;-78
2022/08/23 05:33:49;;;;;;;13.05;7.63;;;;;;;;;;5076345;28;20098;-79
2022/08/23 05:36:16;;;;;;;14.30;7.63;;;;;;;;;;5077195;28;20076;-79
2022/08/23 05:38:44;;;;;;;15.30;7.60;;;;;;;;;;5059851;28;20114;-79
2022/08/23 05:41:10;;;;;;;12.50;6.75;;;;;;;;;;5059513;28;20055;-79
2022/08/23 05:43:37;;;;;;;15.35;7.15;;;;;;;;;;5077498;28;20072;-79
2022/08/23 05:46:06;;;;;;;13.13;7.25;;;;;;;;;;5078711;28;20084;-79
2022/08/23 05:48:39;;;;;;;15.48;7.25;;;;;;;;;;5073124;28;20053;-78
2022/08/23 05:51:33;;;;;;;15.15;7.20;;;;;;;;;;5073195;28;20471;-77
2022/08/23 05:54:01;;;;;;;14.80;7.28;;;;;;;;;;5070921;28;20075;-77
2022/08/23 05:56:29;;;;;;;12.63;7.03;;;;;;;;;;5089009;28;20040;-78
2022/08/23 05:58:58;;;;;;;11.50;7.20;;;;;;;;;;5074551;28;20692;-78
2022/08/23 06:01:26;;;;;;;11.15;7.18;;;;;;;;;;5055497;28;20451;-78
2022/08/23 06:03:53;;;;;;;11.90;6.68;;;;;;;;;;5070245;28;20143;-78
2022/08/23 06:06:19;;;;;;;12.18;7.50;;;;;;;;;;5072472;28;20044;-78
2022/08/23 06:08:47;;;;;;;13.00;6.93;;;;;;;;;;5071100;28;20576;-78
2022/08/23 06:11:21;;;;;;;13.70;7.20;;;;;;;;;;5077872;28;20040;-78
2022/08/23 06:13:49;;;;;;;18.75;7.05;;;;;;;;;;5099081;28;20075;-78
2022/08/23 06:16:17;;;;;;;13.60;6.45;;;;;;;;;;5097237;28;20047;-79
2022/08/23 06:18:44;;;;;;;11.77;6.40;;;;;;;;;;5095607;28;20346;-79
2022/08/23 06:21:11;;;;;;;12.60;5.53;;;;;;;;;;5096837;28;20127;-79
2022/08/23 06:23:37;;;;;;;8.80;4.90;;;;;;;;;;5096359;28;20054;-79
2022/08/23 06:26:11;;;;;;;15.57;5.22;;;;;;;;;;5096548;28;20415;-79
2022/08/23 06:28:38;;;;;;;9.85;4.72;;;;;;;;;;5097386;28;20059;-79
2022/08/23 06:31:43;;;;;;;10.30;4.38;;;;;;;;;;5095954;28;20047;-79
2022/08/23 06:34:10;;;;;;;8.52;4.78;;;;;;;;;;5096633;28;20477;-79
2022/08/23 06:36:37;;;;;;;18.52;5.40;;;;;;;;;;5096409;28;20058;-79
2022/08/23 06:39:04;;;;;;;10.73;4.57;;;;;;;;;;5098442;28;20066;-79
2022/08/23 06:41:31;;;;;;;10.35;4.90;;;;;;;;;;5097263;28;20051;-79
2022/08/23 06:43:57;;;;;;;11.43;5.20;;;;;;;;;;5095247;28;20052;-79
2022/08/23 06:46:25;;;;;;;9.75;4.60;;;;;;;;;;5093914;28;20325;-79
2022/08/23 06:48:54;;;;;;;7.95;4.40;;;;;;;;;;5091206;28;20040;-78
2022/08/23 06:51:24;;;;;;;6.95;4.38;;;;;;;;;;5110603;28;20530;-79
2022/08/23 06:53:55;;;;;;;11.15;4.47;;;;;;;;;;5110362;28;20044;-79
2022/08/23 06:56:22;;;;;;;10.20;4.18;;;;;;;;;;5071647;28;20060;-79
2022/08/23 06:58:49;;;;;;;11.13;4.65;;;;;;;;;;5092619;28;20076;-78
2022/08/23 07:01:27;;;;;;;7.60;3.58;;;;;;;;;;5075142;28;20055;-79
2022/08/23 07:04:12;;;;;;;8.38;3.53;;;;;;;;;;5092574;28;20376;-79
2022/08/23 07:06:39;;;;;;;8.75;4.13;;;;;;;;;;5094142;28;20508;-79
2022/08/23 07:09:06;;;;;;;7.32;3.47;;;;;;;;;;5094434;28;20048;-78
2022/08/23 07:11:32;;;;;;;9.93;3.75;;;;;;;;;;5083895;28;20041;-78
2022/08/23 07:14:00;;;;;;;7.72;4.20;;;;;;;;;;5075237;28;20070;-79
2022/08/23 07:16:40;;;;;;;8.40;3.40;;;;;;;;;;5075795;28;20449;-78
2022/08/23 07:19:07;;;;;;;6.95;3.58;;;;;;;;;;5074903;28;20048;-79
2022/08/23 07:21:34;;;;;;;7.15;3.85;;;;;;;;;;5075360;28;20392;-79
2022/08/23 07:24:01;;;;;;;8.32;3.53;;;;;;;;;;5075556;28;20079;-79
2022/08/23 07:26:28;;;;;;;9.93;3.50;;;;;;;;;;5076276;28;20055;-77
2022/08/23 07:28:55;;;;;;;8.05;3.38;;;;;;;;;;5074581;28;20386;-79
2022/08/23 07:31:27;;;;;;;6.22;3.38;;;;;;;;;;5075301;28;20110;-79
2022/08/23 07:33:54;;;;;;;7.70;3.70;;;;;;;;;;5072554;28;20046;-78
2022/08/23 07:36:25;;;;;;;6.38;3.30;;;;;;;;;;5079377;28;20063;-78
2022/08/23 07:38:53;;;;;;;7.22;3.13;;;;;;;;;;5078536;28;20098;-78
2022/08/23 07:41:22;;;;;;;6.97;3.63;;;;;;;;;;5076915;28;20092;-78
2022/08/23 07:43:49;;;;;;;7.95;3.40;;;;;;;;;;5076106;28;20485;-79
2022/08/23 07:46:16;;;;;;;6.20;2.67;;;;;;;;;;5076599;28;20056;-78
2022/08/23 07:48:43;;;;;;;6.05;3.10;;;;;;;;;;5074620;28;20040;-78
2022/08/23 07:51:20;;;;;;;6.53;2.90;;;;;;;;;;5074482;28;20048;-79
2022/08/23 07:53:47;;;;;;;5.28;2.83;;;;;;;;;;5078989;28;20066;-79
2022/08/23 07:56:14;;;;;;;10.73;3.08;;;;;;;;;;5094268;28;20094;-78
2022/08/23 07:58:41;;;;;;;7.40;2.72;;;;;;;;;;5058515;28;20116;-79
2022/08/23 08:01:15;;;;;;;7.65;2.90;;;;;;;;;;5077895;28;20513;-79
2022/08/23 08:03:43;;;;;;;4.95;2.92;;;;;;;;;;5059174;28;20130;-79
2022/08/23 08:06:11;;;;;;;6.57;3.00;;;;;;;;;;5075553;28;20131;-78
2022/08/23 08:08:39;;;;;;;7.97;3.03;;;;;;;;;;5074874;28;20139;-78
2022/08/23 08:11:06;;;;;;;9.48;2.90;;;;;;;;;;5079926;28;20068;-78
2022/08/23 08:13:34;;;;;;;6.80;2.90;;;;;;;;;;5095109;28;20079;-78
2022/08/23 08:16:00;;;;;;;5.72;2.80;;;;;;;;;;5097365;28;20076;-79
2022/08/23 08:18:27;;;;;;;7.50;3.17;;;;;;;;;;5076256;28;20127;-79
2022/08/23 08:20:53;;;;;;;10.60;2.75;;;;;;;;;;5096311;28;20551;-79
2022/08/23 08:23:20;;;;;;;5.60;2.67;;;;;;;;;;5094761;28;20147;-79
2022/08/23 08:25:46;;;;;;;5.53;2.40;;;;;;;;;;5095037;28;20080;-78
2022/08/23 08:28:13;;;;;;;8.50;2.95;;;;;;;;;;5095873;28;20138;-78
2022/08/23 08:30:41;;;;;;;9.00;2.80;;;;;;;;;;5093218;28;20048;-78
2022/08/23 08:33:07;;;;;;;5.55;2.60;;;;;;;;;;5093494;28;20469;-79
2022/08/23 08:35:34;;;;;;;7.53;3.00;;;;;;;;;;5099258;28;20094;-80
2022/08/23 08:38:01;;;;;;;8.38;2.75;;;;;;;;;;5108757;28;20467;-79
2022/08/23 08:40:30;;;;;;;7.55;2.60;;;;;;;;;;5098347;28;20079;-78
2022/08/23 08:43:16;;;;;;;5.63;2.50;;;;;;;;;;5073766;28;20052;-79
2022/08/23 08:45:42;;;;;;;;;;;;;;;;;;5072547;28;20518;-78
2022/08/23 08:48:08;;;;;;;;;;;;;;;;;;5091144;28;20003;-78
2022/08/23 08:50:40;;;;;;;6.38;2.53;;;;;;;;;;5090477;28;20014;-78
2022/08/23 08:53:16;;;;;;;8.60;2.78;;;;;;;;;;5090684;28;20083;-77
2022/08/23 08:55:45;;;;;;;7.50;2.65;;;;;;;;;;5090824;28;20052;-78
2022/08/23 08:58:23;;;;;;;12.05;3.03;;;;;;;;;;5091015;28;20567;-79
2022/08/23 09:00:50;;;;;;;9.98;2.75;;;;;;;;;;5095379;28;20090;-78
2022/08/23 09:03:22;;;;;;;5.93;2.70;;;;;;;;;;5091203;28;20052;-79
2022/08/23 09:05:58;;;;;;;5.75;2.50;;;;;;;;;;5091460;28;20185;-78
2022/08/23 09:08:44;;;;;;;5.65;2.58;;;;;;;;;;5090870;28;20083;-78
2022/08/23 09:11:30;;;;;;;8.45;2.80;;;;;;;;;;5091078;28;20060;-78
2022/08/23 09:13:58;;;;;;;6.65;2.47;;;;;;;;;;5091101;28;20091;-78
2022/08/23 09:16:39;;;;;;;6.10;2.35;;;;;;;;;;5091568;28;20076;-79
2022/08/23 09:19:06;;;;;;;7.03;2.63;;;;;;;;;;5090514;28;20131;-78
2022/08/23 09:21:38;;;;;;;6.32;2.45;;;;;;;;;;5090898;28;20130;-78
2022/08/23 09:24:05;;;;;;;8.25;2.70;;;;;;;;;;5090635;28;20056;-78
2022/08/23 09:26:31;;;;;;;5.70;2.33;;;;;;;;;;5090196;28;20520;-78
2022/08/23 09:29:00;;;;;;;5.20;2.05;;;;;;;;;;5091503;28;20483;-78
2022/08/23 09:31:43;;;;;;;6.72;2.60;;;;;;;;;;5071841;28;20545;-78
2022/08/23 09:34:14;;;;;;;6.50;2.90;;;;;;;;;;5090115;28;20044;-78
2022/08/23 09:36:40;;;;;;;8.13;2.50;;;;;;;;;;5073011;28;20556;-79
2022/08/23 09:39:22;;;;;;;6.40;2.28;;;;;;;;;;5090764;28;20079;-78
2022/08/23 09:41:56;;;;;;;6.80;2.03;;;;;;;;;;5089363;28;20062;-79
2022/08/23 09:44:34;;;;;;;8.13;2.33;;;;;;;;;;5090419;28;20170;-77
2022/08/23 09:47:08;;;;;;;9.43;2.60;;;;;;;;;;5089576;28;20121;-78
2022/08/23 09:49:35;;;;;;;7.63;2.28;;;;;;;;;;5090085;28;20136;-78
2022/08/23 09:52:11;;;;;;;6.15;2.50;;;;;;;;;;5089625;28;20044;-78
2022/08/23 09:55:01;;;;;;;7.95;2.50;;;;;;;;;;5089930;28;20048;-78
2022/08/23 09:57:29;;;;;;;4.15;2.00;;;;;;;;;;5091510;28;20072;-79
2022/08/23 10:00:00;;;;;;;6.68;2.53;;;;;;;;;;5096222;28;20135;-78
2022/08/23 10:02:29;;;;;;;6.25;2.30;;;;;;;;;;5090688;28;20079;-77
2022/08/23 10:04:59;;;;;;;8.57;2.25;;;;;;;;;;5090377;28;20040;-79
2022/08/23 10:07:25;;;;;;;5.03;2.15;;;;;;;;;;5090432;28;20054;-78
2022/08/23 10:09:53;;;;;;;6.57;2.20;;;;;;;;;;5097915;28;20064;-79
2022/08/23 10:12:19;;;;;;;7.00;2.28;;;;;;;;;;5055924;28;20109;-78
2022/08/23 10:14:46;;;;;;;6.32;2.10;;;;;;;;;;5077785;28;20042;-77
2022/08/23 10:17:36;;;;;;;9.35;2.30;;;;;;;;;;5094517;28;20044;-77
2022/08/23 10:20:15;;;;;;;4.00;1.80;;;;;;;;;;5093633;28;20091;-79
2022/08/23 10:22:44;;;;;;;9.48;2.30;;;;;;;;;;5073749;28;20049;-79
2022/08/23 10:25:11;;;;;;;9.32;1.80;;;;;;;;;;5074506;28;20068;-79
2022/08/23 10:30:38;;;;;;;5.63;2.00;;;;;;;;;;5078865;28;20048;-78
2022/08/23 10:33:11;;;;;;;5.22;1.80;;;;;;;;;;5073381;28;20108;-78
2022/08/23 10:35:56;;;;;;;7.57;1.98;;;;;;;;;;5079328;28;20084;-78
2022/08/23 10:38:28;;;;;;;10.88;2.20;;;;;;;;;;5081793;28;20076;-78
2022/08/23 10:41:00;;;;;;;7.15;2.20;;;;;;;;;;5076443;28;20110;-79
2022/08/23 10:43:47;;;;;;;6.40;1.98;;;;;;;;;;5086528;28;20056;-79
2022/08/23 10:46:13;;;;;;;8.00;1.80;;;;;;;;;;5082511;28;20099;-80
2022/08/23 10:48:52;;;;;;;7.28;2.15;;;;;;;;;;5073810;28;20052;-77
2022/08/23 10:51:28;;;;;;;5.57;2.00;;;;;;;;;;5078561;28;20154;-79
2022/08/23 10:54:02;;;;;;;6.80;2.88;;;;;;;;;;5075772;28;20565;-78
2022/08/23 10:56:28;;;;;;;7.40;3.17;;;;;;;;;;5087014;28;20507;-78
2022/08/23 10:58:57;;;;;;;7.45;3.08;;;;;;;;;;5070060;28;20469;-78
2022/08/23 11:01:27;;;;;;;4.97;2.50;;;;;;;;;;5072269;28;20132;-79
2022/08/23 11:04:13;;;;;;;8.50;3.03;;;;;;;;;;5073034;28;20044;-79
2022/08/23 11:06:43;;;;;;;6.68;2.70;;;;;;;;;;5074135;28;20153;-77
2022/08/23 11:09:18;;;;;;;9.40;4.22;;;;;;;;;;5069660;28;20417;-77
2022/08/23 11:11:48;;;;;;;8.38;4.10;;;;;;;;;;5072448;28;20169;-77
2022/08/23 11:14:26;;;;;;;7.85;4.00;;;;;;;;;;5057353;28;20044;-78
2022/08/23 11:16:58;;;;;;;10.75;4.18;;;;;;;;;;5075794;28;20208;-79
2022/08/23 11:19:43;;;;;;;7.68;3.80;;;;;;;;;;5074792;28;20072;-78
2022/08/23 11:22:18;;;;;;;7.27;3.97;;;;;;;;;;5074921;28;20044;-78
2022/08/23 11:24:49;;;;;;;8.88;4.03;;;;;;;;;;5085545;28;20052;-78
2022/08/23 11:27:34;;;;;;;16.27;4.30;;;;;;;;;;5075882;28;20131;-79
2022/08/23 11:30:19;;;;;;;15.63;4.63;;;;;;;;;;5077441;28;20485;-78
2022/08/23 11:32:47;;;;;;;12.23;4.17;;;;;;;;;;5081410;28;20044;-79
2022/08/23 11:35:25;;;;;;;9.82;3.80;;;;;;;;;;5074729;28;20049;-78
2022/08/23 11:37:55;;;;;;;9.63;3.55;;;;;;;;;;5055374;28;20434;-79
2022/08/23 11:40:40;;;;;;;9.23;3.25;;;;;;;;;;5073273;28;20497;-79
2022/08/23 11:43:24;;;;;;;10.27;3.15;;;;;;;;;;5073080;28;20041;-78
2022/08/23 11:45:50;;;;;;;9.82;3.63;;;;;;;;;;5055861;28;20047;-78
2022/08/23 11:48:23;;;;;;;10.95;3.67;;;;;;;;;;5079868;28;20051;-79
2022/08/23 11:50:50;;;;;;;10.52;3.30;;;;;;;;;;5080365;28;20126;-77
2022/08/23 11:53:23;;;;;;;8.40;3.40;;;;;;;;;;5082604;28;20163;-79
2022/08/23 11:56:04;;;;;;;8.60;3.40;;;;;;;;;;5084155;28;20079;-78
2022/08/23 11:58:49;;;;;;;13.20;3.88;;;;;;;;;;5096253;28;20265;-77
2022/08/23 12:01:26;;;;;;;14.38;4.22;;;;;;;;;;5110070;28;20052;-79
2022/08/23 12:03:58;;;;;;;11.43;4.82;;;;;;;;;;5111667;28;20047;-79
2022/08/23 12:06:37;;;;;;;9.80;4.90;;;;;;;;;;5109092;28;20059;-79
2022/08/23 12:09:10;;;;;;;10.13;3.40;;;;;;;;;;5111453;28;20058;-78
2022/08/23 12:11:52;;;;;;;14.30;3.90;;;;;;;;;;5083918;28;20036;-79
2022/08/23 12:14:40;;;;;;;10.60;3.47;;;;;;;;;;5086762;28;20057;-79
2022/08/23 12:17:15;;;;;;;10.65;3.28;;;;;;;;;;5067689;28;20387;-79
2022/08/23 12:19:47;;;;;;;12.40;3.67;;;;;;;;;;5066417;28;20115;-79
2022/08/23 12:22:18;;;;;;;9.63;3.60;;;;;;;;;;5087558;28;20141;-78
2022/08/23 12:24:44;;;;;;;8.90;3.72;;;;;;;;;;5092909;28;20032;-78
2022/08/23 12:27:31;;;;;;;8.63;3.80;;;;;;;;;;5085969;28;20087;-78
2022/08/23 12:30:21;;;;;;;12.50;4.27;;;;;;;;;;5078451;28;20072;-78
2022/08/23 12:33:02;;;;;;;6.85;3.35;;;;;;;;;;5064747;28;20378;-79
2022/08/23 12:35:33;;;;;;;12.38;3.47;;;;;;;;;;5056385;28;20120;-79
2022/08/23 12:38:00;;;;;;;9.70;3.92;;;;;;;;;;5063784;28;20072;-79
2022/08/23 12:40:30;;;;;;;9.75;3.83;;;;;;;;;;5077124;28;20079;-79
2022/08/23 12:43:23;;;;;;;11.20;3.17;;;;;;;;;;5076485;28;20076;-79
2022/08/23 12:45:54;;;;;;;7.93;2.80;;;;;;;;;;5076056;28;20072;-79
2022/08/23 12:48:23;;;;;;;10.95;3.05;;;;;;;;;;5072660;28;20048;-77
2022/08/23 12:50:54;;;;;;;7.75;2.80;;;;;;;;;;5074564;28;20686;-78
2022/08/23 12:53:31;;;;;;;5.80;2.60;;;;;;;;;;5077324;28;20405;-79
2022/08/23 12:56:04;;;;;;;7.60;2.83;;;;;;;;;;5069614;28;20090;-77
2022/08/23 12:58:32;;;;;;;7.03;2.45;;;;;;;;;;5073016;28;20075;-79
2022/08/23 13:01:00;;;;;;;6.35;2.20;;;;;;;;;;5075306;28;20506;-79
2022/08/23 13:03:26;;;;;;;8.05;2.22;;;;;;;;;;5070638;28;20653;-78
2022/08/23 13:06:01;;;;;;;5.07;2.20;;;;;;;;;;5054570;28;20545;-79
2022/08/23 13:08:40;;;;;;;7.78;2.05;;;;;;;;;;5072153;28;20151;-79
2022/08/23 13:11:09;;;;;;;7.32;2.45;;;;;;;;;;5071535;28;20076;-79
2022/08/23 13:13:37;;;;;;;7.65;2.20;;;;;;;;;;5073367;28;20080;-79
2022/08/23 13:16:22;;;;;;;6.82;2.40;;;;;;;;;;5074088;28;20501;-79
2022/08/23 13:18:53;;;;;;;7.50;2.20;;;;;;;;;;5071874;28;20056;-79
2022/08/23 13:21:21;;;;;;;8.32;2.05;;;;;;;;;;5073558;28;20568;-78
2022/08/23 13:23:52;;;;;;;7.95;2.58;;;;;;;;;;5073299;28;20086;-78
2022/08/23 13:26:27;;;;;;;7.32;2.20;;;;;;;;;;5073642;28;20564;-78
2022/08/23 13:29:00;;;;;;;9.95;2.10;;;;;;;;;;5089785;28;20258;-79
2022/08/23 13:31:46;;;;;;;6.38;2.38;;;;;;;;;;5095258;28;20032;-80
2022/08/23 13:34:12;;;;;;;;;;;;;;;;;;5081004;28;20055;-78
2022/08/23 13:36:42;;;;;;;9.45;2.42;;;;;;;;;;5073347;28;19931;-76
2022/08/23 13:39:08;;;;;;;7.75;2.15;;;;;;;;;;5072994;28;20386;-79
2022/08/23 13:41:35;;;;;;;12.32;2.20;;;;;;;;;;5082420;28;20049;-78
2022/08/23 13:44:05;;;;;;;8.68;2.13;;;;;;;;;;5087324;28;20074;-78
2022/08/23 13:46:32;;;;;;;5.40;2.00;;;;;;;;;;5088630;28;20070;-76
2022/08/23 13:49:01;;;;;;;7.72;2.20;;;;;;;;;;5071843;28;20028;-79
2022/08/23 13:51:33;;;;;;;8.15;2.25;;;;;;;;;;5066023;28;20044;-78
2022/08/23 13:54:08;;;;;;;4.47;2.25;;;;;;;;;;5085980;28;20059;-77
2022/08/23 13:56:37;;;;;;;5.45;2.20;;;;;;;;;;5063167;28;20048;-78
2022/08/23 13:59:26;;;;;;;8.43;1.95;;;;;;;;;;5061960;28;20093;-78
2022/08/23 14:02:01;;;;;;;10.73;2.30;;;;;;;;;;5078523;28;20045;-78
2022/08/23 14:04:28;;;;;;;6.88;2.47;;;;;;;;;;5077854;28;20044;-78
2022/08/23 14:06:54;;;;;;;7.28;2.10;;;;;;;;;;5081488;28;20496;-78
2022/08/23 14:09:21;;;;;;;5.43;2.20;;;;;;;;;;5079257;28;20511;-78
2022/08/23 14:11:51;;;;;;;8.48;2.17;;;;;;;;;;5087281;28;20076;-78
2022/08/23 14:14:17;;;;;;;9.50;2.28;;;;;;;;;;5082677;28;20135;-78
2022/08/23 14:16:44;;;;;;;10.05;2.30;;;;;;;;;;5082437;28;20064;-78
2022/08/23 14:19:10;;;;;;;8.57;1.98;;;;;;;;;;5081638;28;20127;-78
2022/08/23 14:21:57;;;;;;;11.52;2.25;;;;;;;;;;5083177;28;20058;-78
2022/08/23 14:24:25;;;;;;;9.38;1.90;;;;;;;;;;5086561;28;20082;-78
2022/08/23 14:26:52;;;;;;;7.18;2.05;;;;;;;;;;5081743;28;20507;-78
2022/08/23 14:29:20;;;;;;;9.55;1.98;;;;;;;;;;5087001;28;20091;-79
2022/08/23 14:31:48;;;;;;;6.28;2.08;;;;;;;;;;5084037;28;20131;-79
2022/08/23 14:34:14;;;;;;;7.72;2.50;;;;;;;;;;5083518;28;20044;-79
2022/08/23 14:36:41;;;;;;;5.10;1.83;;;;;;;;;;5087197;28;20051;-76
2022/08/23 14:39:27;;;;;;;8.15;1.67;;;;;;;;;;5087959;28;20070;-78
2022/08/23 14:41:54;;;;;;;20.13;2.13;;;;;;;;;;5076170;28;20156;-77
2022/08/23 14:44:20;;;;;;;4.55;1.85;;;;;;;;;;5059739;28;20059;-78
2022/08/23 14:46:47;;;;;;;7.05;1.77;;;;;;;;;;5084685;28;20508;-77
2022/08/23 14:49:13;;;;;;;3.95;1.52;;;;;;;;;;5094736;28;20565;-78
2022/08/23 14:51:44;;;;;;;5.30;1.80;;;;;;;;;;5076465;28;20048;-78
2022/08/23 14:54:13;;;;;;;4.55;1.55;;;;;;;;;;5093061;28;20116;-78
2022/08/23 14:56:40;;;;;;;8.50;1.90;;;;;;;;;;5077995;28;20135;-78
2022/08/23 14:59:06;;;;;;;11.27;2.03;;;;;;;;;;5094722;28;20071;-78
2022/08/23 15:01:33;;;;;;;5.90;1.90;;;;;;;;;;5093299;28;20086;-78
2022/08/23 15:04:00;;;;;;;5.38;1.77;;;;;;;;;;5076920;28;20051;-78
2022/08/23 15:06:26;;;;;;;6.40;2.05;;;;;;;;;;5078059;28;20044;-79
2022/08/23 15:08:59;;;;;;;5.45;1.63;;;;;;;;;;5096619;28;20350;-78